Saint Helens, KY (41368)

7:14 AM EST on January 28, 2015 (GMT -0500)
APRSWXNET Talbert KY US | Change Station
CLOSE
Current Station
Personal Weather Station
Location: Whick, KY
Elevation: 862 ft
Nearby Weather Stations

Elev 862 ft 37.41 °N, 83.43 °W | Updated 26 minutes ago

Clear
Clear
15 °F
Feels Like 15 °F
N
0
Wind Variable Wind from North
Gusts 0.0 mph

Today
High -- | Low -- °F
--% Chance of Precip.
Yesterday
High -- | Low -- °F
Precip. -- in
7:41 AM 5:53 PM
Waxing Gibbous, 64% visible
Pressure 30.35 in
Visibility 10.0 miles
Clouds Clear
Windchill 15 °F
Dew Point 11 °F
Humidity 84%
Rainfall -999.00 in
Snow Depth Not available.
UV 0 out of 12
Pollen .10 out of 12
Air Quality Not available.
Flu Activity Not available.
METAR KJKL 281153Z AUTO 00000KT 10SM CLR M09/M12 A3030 RMK AO2 SLP277 T10941122 11072 21094 53020

More Conditions Fewer Conditions

Pressure 30.35 in
Visibility 10.0 miles
Clouds Clear
Windchill 15 °F
Dew Point 11 °F
Humidity 84%
Rainfall -999.00 in
Snow Depth Not available.
UV 0 out of 12
Pollen .10 out of 12
Air Quality Not available.
Flu Activity Not available.
METAR KJKL 281153Z AUTO 00000KT 10SM CLR M09/M12 A3030 RMK AO2 SLP277 T10941122 11072 21094 53020

More Conditions Fewer Conditions

10-Day Weather Forecast

Almanac

Astronomy

Jan. 28, 2015 Rise Set
Actual Time
Civil Twilight
Nautical Twilight
Astronomical Twilight
Moon
Length of Visible Light
Length of Day
Tomorrow will be .
, % of the Moon is Illuminated

Today's Extremes

State Highs State Lows

Community

WunderPhotos

Upload Photos

1,791,131 photos uploaded!

WunderBlogs® & News

Nearby

Air Quality

  Air Quality AQ Index Pollutant
Not available.

Snow Depth

Station Depth Elevation

Earthquake Activity

City Distance Mag. Time & Date
Minimum magnitude displayed is 2.5.

Coastal Water Temperatures

Place Temperature

Nearby Weather Stations